sensor_id;sensor_type;location;lat;lon;timestamp;P1;durP1;ratioP1;P2;durP2;ratioP2
65459;SDS011;52058;49.822;6.754;2024-01-11T00:02:19;26.90;;;11.40;;
65459;SDS011;52058;49.822;6.754;2024-01-11T00:04:46;25.45;;;11.98;;
65459;SDS011;52058;49.822;6.754;2024-01-11T00:07:12;24.23;;;11.48;;
65459;SDS011;52058;49.822;6.754;2024-01-11T00:09:40;25.83;;;11.70;;
65459;SDS011;52058;49.822;6.754;2024-01-11T00:12:07;24.60;;;11.48;;
65459;SDS011;52058;49.822;6.754;2024-01-11T00:14:33;21.17;;;10.38;;
65459;SDS011;52058;49.822;6.754;2024-01-11T00:17:00;26.45;;;11.10;;
65459;SDS011;52058;49.822;6.754;2024-01-11T00:19:26;24.25;;;11.45;;
65459;SDS011;52058;49.822;6.754;2024-01-11T00:21:53;20.48;;;10.32;;
65459;SDS011;52058;49.822;6.754;2024-01-11T00:24:19;26.88;;;11.50;;
65459;SDS011;52058;49.822;6.754;2024-01-11T00:26:47;26.65;;;10.55;;
65459;SDS011;52058;49.822;6.754;2024-01-11T00:29:13;28.02;;;12.27;;
65459;SDS011;52058;49.822;6.754;2024-01-11T00:31:40;22.77;;;11.27;;
65459;SDS011;52058;49.822;6.754;2024-01-11T00:34:06;22.80;;;11.75;;
65459;SDS011;52058;49.822;6.754;2024-01-11T00:36:35;22.27;;;11.95;;
65459;SDS011;52058;49.822;6.754;2024-01-11T00:39:02;22.85;;;11.95;;
65459;SDS011;52058;49.822;6.754;2024-01-11T00:41:29;25.55;;;11.48;;
65459;SDS011;52058;49.822;6.754;2024-01-11T00:43:56;20.83;;;11.30;;
65459;SDS011;52058;49.822;6.754;2024-01-11T00:46:23;24.60;;;11.32;;
65459;SDS011;52058;49.822;6.754;2024-01-11T00:48:49;22.40;;;11.52;;
65459;SDS011;52058;49.822;6.754;2024-01-11T00:51:16;25.95;;;11.73;;
65459;SDS011;52058;49.822;6.754;2024-01-11T00:53:42;22.95;;;11.45;;
65459;SDS011;52058;49.822;6.754;2024-01-11T00:56:14;25.27;;;10.77;;
65459;SDS011;52058;49.822;6.754;2024-01-11T00:58:41;21.27;;;10.60;;
65459;SDS011;52058;49.822;6.754;2024-01-11T01:01:09;24.02;;;10.68;;
65459;SDS011;52058;49.822;6.754;2024-01-11T01:03:36;33.13;;;11.63;;
65459;SDS011;52058;49.822;6.754;2024-01-11T01:06:02;21.80;;;10.20;;
65459;SDS011;52058;49.822;6.754;2024-01-11T01:08:29;27.30;;;10.57;;
65459;SDS011;52058;49.822;6.754;2024-01-11T01:10:56;26.85;;;12.68;;
65459;SDS011;52058;49.822;6.754;2024-01-11T01:13:22;25.67;;;11.25;;
65459;SDS011;52058;49.822;6.754;2024-01-11T01:15:49;22.10;;;10.13;;
65459;SDS011;52058;49.822;6.754;2024-01-11T01:18:16;20.13;;;10.90;;
65459;SDS011;52058;49.822;6.754;2024-01-11T01:20:43;21.25;;;10.43;;
65459;SDS011;52058;49.822;6.754;2024-01-11T01:23:09;26.40;;;12.23;;
65459;SDS011;52058;49.822;6.754;2024-01-11T01:25:36;20.05;;;10.35;;
65459;SDS011;52058;49.822;6.754;2024-01-11T01:28:02;23.95;;;11.40;;
65459;SDS011;52058;49.822;6.754;2024-01-11T01:30:29;24.35;;;11.73;;
65459;SDS011;52058;49.822;6.754;2024-01-11T01:32:55;24.77;;;11.07;;
65459;SDS011;52058;49.822;6.754;2024-01-11T01:35:23;25.17;;;11.05;;
65459;SDS011;52058;49.822;6.754;2024-01-11T01:37:50;24.00;;;12.52;;
65459;SDS011;52058;49.822;6.754;2024-01-11T01:40:16;25.23;;;11.73;;
65459;SDS011;52058;49.822;6.754;2024-01-11T01:42:42;21.98;;;11.40;;
65459;SDS011;52058;49.822;6.754;2024-01-11T01:45:10;30.10;;;12.85;;
65459;SDS011;52058;49.822;6.754;2024-01-11T01:47:36;23.67;;;11.90;;
65459;SDS011;52058;49.822;6.754;2024-01-11T01:50:04;31.85;;;12.77;;
65459;SDS011;52058;49.822;6.754;2024-01-11T01:52:32;30.52;;;12.02;;
65459;SDS011;52058;49.822;6.754;2024-01-11T01:54:58;24.65;;;10.73;;
65459;SDS011;52058;49.822;6.754;2024-01-11T01:57:25;22.17;;;11.68;;
65459;SDS011;52058;49.822;6.754;2024-01-11T01:59:52;23.92;;;11.43;;
65459;SDS011;52058;49.822;6.754;2024-01-11T02:02:18;20.42;;;11.43;;
65459;SDS011;52058;49.822;6.754;2024-01-11T02:04:45;25.40;;;11.07;;
65459;SDS011;52058;49.822;6.754;2024-01-11T02:07:12;26.08;;;11.60;;
65459;SDS011;52058;49.822;6.754;2024-01-11T02:09:40;25.92;;;11.18;;
65459;SDS011;52058;49.822;6.754;2024-01-11T02:12:07;30.45;;;11.93;;
65459;SDS011;52058;49.822;6.754;2024-01-11T02:14:36;24.65;;;11.65;;
65459;SDS011;52058;49.822;6.754;2024-01-11T02:17:03;25.10;;;11.95;;
65459;SDS011;52058;49.822;6.754;2024-01-11T02:19:29;19.92;;;9.70;;
65459;SDS011;52058;49.822;6.754;2024-01-11T02:21:56;24.10;;;10.93;;
65459;SDS011;52058;49.822;6.754;2024-01-11T02:24:26;23.35;;;11.13;;
65459;SDS011;52058;49.822;6.754;2024-01-11T02:26:59;29.73;;;13.82;;
65459;SDS011;52058;49.822;6.754;2024-01-11T02:29:26;22.88;;;11.95;;
65459;SDS011;52058;49.822;6.754;2024-01-11T02:31:53;28.90;;;12.40;;
65459;SDS011;52058;49.822;6.754;2024-01-11T02:34:19;24.85;;;12.25;;
65459;SDS011;52058;49.822;6.754;2024-01-11T02:36:46;27.65;;;12.20;;
65459;SDS011;52058;49.822;6.754;2024-01-11T02:39:13;30.42;;;12.80;;
65459;SDS011;52058;49.822;6.754;2024-01-11T02:41:41;27.23;;;11.52;;
65459;SDS011;52058;49.822;6.754;2024-01-11T02:44:08;25.55;;;12.80;;
65459;SDS011;52058;49.822;6.754;2024-01-11T02:46:34;29.80;;;13.38;;
65459;SDS011;52058;49.822;6.754;2024-01-11T02:49:01;24.15;;;12.35;;
65459;SDS011;52058;49.822;6.754;2024-01-11T02:51:27;27.13;;;12.15;;
65459;SDS011;52058;49.822;6.754;2024-01-11T02:53:54;28.13;;;13.20;;
65459;SDS011;52058;49.822;6.754;2024-01-11T02:56:20;30.55;;;13.00;;
65459;SDS011;52058;49.822;6.754;2024-01-11T02:58:48;31.27;;;14.10;;
65459;SDS011;52058;49.822;6.754;2024-01-11T03:01:14;24.92;;;13.07;;
65459;SDS011;52058;49.822;6.754;2024-01-11T03:03:41;27.80;;;12.30;;
65459;SDS011;52058;49.822;6.754;2024-01-11T03:06:07;29.27;;;13.90;;
65459;SDS011;52058;49.822;6.754;2024-01-11T03:08:33;27.55;;;13.35;;
65459;SDS011;52058;49.822;6.754;2024-01-11T03:11:00;27.40;;;11.88;;
65459;SDS011;52058;49.822;6.754;2024-01-11T03:13:26;40.95;;;12.25;;
65459;SDS011;52058;49.822;6.754;2024-01-11T03:15:54;25.08;;;12.82;;
65459;SDS011;52058;49.822;6.754;2024-01-11T03:18:20;27.60;;;13.75;;
65459;SDS011;52058;49.822;6.754;2024-01-11T03:20:47;23.35;;;12.23;;
65459;SDS011;52058;49.822;6.754;2024-01-11T03:23:13;29.70;;;13.25;;
65459;SDS011;52058;49.822;6.754;2024-01-11T03:25:40;28.20;;;13.95;;
65459;SDS011;52058;49.822;6.754;2024-01-11T03:28:06;24.83;;;12.77;;
65459;SDS011;52058;49.822;6.754;2024-01-11T03:30:33;22.35;;;11.52;;
65459;SDS011;52058;49.822;6.754;2024-01-11T03:33:01;24.38;;;12.27;;
65459;SDS011;52058;49.822;6.754;2024-01-11T03:35:27;24.45;;;11.95;;
65459;SDS011;52058;49.822;6.754;2024-01-11T03:37:53;30.65;;;14.13;;
65459;SDS011;52058;49.822;6.754;2024-01-11T03:40:20;28.25;;;13.10;;
65459;SDS011;52058;49.822;6.754;2024-01-11T03:42:46;27.85;;;12.02;;
65459;SDS011;52058;49.822;6.754;2024-01-11T03:45:13;31.75;;;13.32;;
65459;SDS011;52058;49.822;6.754;2024-01-11T03:47:39;27.48;;;12.32;;
65459;SDS011;52058;49.822;6.754;2024-01-11T03:50:08;26.27;;;12.18;;
65459;SDS011;52058;49.822;6.754;2024-01-11T03:52:35;32.88;;;14.05;;
65459;SDS011;52058;49.822;6.754;2024-01-11T03:55:01;30.25;;;13.43;;
65459;SDS011;52058;49.822;6.754;2024-01-11T03:57:28;22.27;;;12.63;;
65459;SDS011;52058;49.822;6.754;2024-01-11T03:59:54;30.13;;;12.65;;
65459;SDS011;52058;49.822;6.754;2024-01-11T04:02:21;22.50;;;12.10;;
65459;SDS011;52058;49.822;6.754;2024-01-11T04:04:47;31.20;;;13.35;;
65459;SDS011;52058;49.822;6.754;2024-01-11T04:07:15;33.97;;;14.05;;
65459;SDS011;52058;49.822;6.754;2024-01-11T04:09:42;26.98;;;12.70;;
65459;SDS011;52058;49.822;6.754;2024-01-11T04:12:08;33.83;;;12.98;;
65459;SDS011;52058;49.822;6.754;2024-01-11T04:14:37;27.80;;;13.68;;
65459;SDS011;52058;49.822;6.754;2024-01-11T04:17:03;26.85;;;13.02;;
65459;SDS011;52058;49.822;6.754;2024-01-11T04:19:30;28.08;;;13.38;;
65459;SDS011;52058;49.822;6.754;2024-01-11T04:21:56;28.25;;;12.68;;
65459;SDS011;52058;49.822;6.754;2024-01-11T04:24:24;32.70;;;13.93;;
65459;SDS011;52058;49.822;6.754;2024-01-11T04:26:50;26.80;;;12.93;;
65459;SDS011;52058;49.822;6.754;2024-01-11T04:29:17;26.35;;;12.45;;
65459;SDS011;52058;49.822;6.754;2024-01-11T04:31:43;29.65;;;14.20;;
65459;SDS011;52058;49.822;6.754;2024-01-11T04:34:10;28.77;;;12.75;;
65459;SDS011;52058;49.822;6.754;2024-01-11T04:36:37;23.13;;;10.90;;
65459;SDS011;52058;49.822;6.754;2024-01-11T04:39:03;26.88;;;13.63;;
65459;SDS011;52058;49.822;6.754;2024-01-11T04:41:33;31.23;;;12.80;;
65459;SDS011;52058;49.822;6.754;2024-01-11T04:44:00;25.17;;;13.13;;
65459;SDS011;52058;49.822;6.754;2024-01-11T04:46:26;31.08;;;13.70;;
65459;SDS011;52058;49.822;6.754;2024-01-11T04:48:53;31.00;;;13.60;;
65459;SDS011;52058;49.822;6.754;2024-01-11T04:51:19;29.85;;;13.38;;
65459;SDS011;52058;49.822;6.754;2024-01-11T04:53:46;31.30;;;13.57;;
65459;SDS011;52058;49.822;6.754;2024-01-11T04:56:13;30.83;;;13.90;;
65459;SDS011;52058;49.822;6.754;2024-01-11T04:58:41;27.95;;;12.45;;
65459;SDS011;52058;49.822;6.754;2024-01-11T05:01:11;28.98;;;12.10;;
65459;SDS011;52058;49.822;6.754;2024-01-11T05:03:37;30.33;;;13.30;;
65459;SDS011;52058;49.822;6.754;2024-01-11T05:06:04;30.55;;;13.88;;
65459;SDS011;52058;49.822;6.754;2024-01-11T05:08:31;25.77;;;13.88;;
65459;SDS011;52058;49.822;6.754;2024-01-11T05:10:57;31.77;;;13.75;;
65459;SDS011;52058;49.822;6.754;2024-01-11T05:13:24;32.80;;;13.80;;
65459;SDS011;52058;49.822;6.754;2024-01-11T05:15:52;35.20;;;14.30;;
65459;SDS011;52058;49.822;6.754;2024-01-11T05:18:18;29.05;;;12.73;;
65459;SDS011;52058;49.822;6.754;2024-01-11T05:20:44;28.52;;;13.55;;
65459;SDS011;52058;49.822;6.754;2024-01-11T05:23:11;28.92;;;14.48;;
65459;SDS011;52058;49.822;6.754;2024-01-11T05:25:37;31.73;;;15.23;;
65459;SDS011;52058;49.822;6.754;2024-01-11T05:28:04;29.70;;;13.23;;
65459;SDS011;52058;49.822;6.754;2024-01-11T05:30:30;27.77;;;13.85;;
65459;SDS011;52058;49.822;6.754;2024-01-11T05:32:58;30.60;;;13.95;;
65459;SDS011;52058;49.822;6.754;2024-01-11T05:35:24;26.08;;;13.18;;
65459;SDS011;52058;49.822;6.754;2024-01-11T05:37:52;29.88;;;13.85;;
65459;SDS011;52058;49.822;6.754;2024-01-11T05:40:19;31.42;;;14.43;;
65459;SDS011;52058;49.822;6.754;2024-01-11T05:42:46;32.10;;;13.68;;
65459;SDS011;52058;49.822;6.754;2024-01-11T05:45:12;27.60;;;12.82;;
65459;SDS011;52058;49.822;6.754;2024-01-11T05:47:41;31.98;;;15.55;;
65459;SDS011;52058;49.822;6.754;2024-01-11T05:50:09;28.15;;;13.43;;
65459;SDS011;52058;49.822;6.754;2024-01-11T05:52:36;28.27;;;14.27;;
65459;SDS011;52058;49.822;6.754;2024-01-11T05:55:03;31.50;;;14.05;;
65459;SDS011;52058;49.822;6.754;2024-01-11T05:57:30;30.80;;;13.45;;
65459;SDS011;52058;49.822;6.754;2024-01-11T05:59:56;37.47;;;14.85;;
65459;SDS011;52058;49.822;6.754;2024-01-11T06:02:23;31.45;;;14.23;;
65459;SDS011;52058;49.822;6.754;2024-01-11T06:04:49;31.25;;;12.93;;
65459;SDS011;52058;49.822;6.754;2024-01-11T06:07:17;31.80;;;14.48;;
65459;SDS011;52058;49.822;6.754;2024-01-11T06:09:43;31.70;;;13.50;;
65459;SDS011;52058;49.822;6.754;2024-01-11T06:12:09;31.42;;;14.88;;
65459;SDS011;52058;49.822;6.754;2024-01-11T06:14:36;29.63;;;12.95;;
65459;SDS011;52058;49.822;6.754;2024-01-11T06:17:03;32.15;;;14.27;;
65459;SDS011;52058;49.822;6.754;2024-01-11T06:19:29;33.47;;;15.20;;
65459;SDS011;52058;49.822;6.754;2024-01-11T06:21:55;27.45;;;13.38;;
65459;SDS011;52058;49.822;6.754;2024-01-11T06:24:23;29.02;;;13.48;;
65459;SDS011;52058;49.822;6.754;2024-01-11T06:26:50;26.67;;;14.23;;
65459;SDS011;52058;49.822;6.754;2024-01-11T06:32:18;29.15;;;13.15;;
65459;SDS011;52058;49.822;6.754;2024-01-11T06:34:45;27.38;;;13.40;;
65459;SDS011;52058;49.822;6.754;2024-01-11T06:37:12;30.75;;;14.30;;
65459;SDS011;52058;49.822;6.754;2024-01-11T06:39:40;31.23;;;15.65;;
65459;SDS011;52058;49.822;6.754;2024-01-11T06:42:06;34.75;;;14.50;;
65459;SDS011;52058;49.822;6.754;2024-01-11T06:44:33;27.33;;;12.52;;
65459;SDS011;52058;49.822;6.754;2024-01-11T06:46:59;34.90;;;13.10;;
65459;SDS011;52058;49.822;6.754;2024-01-11T06:49:26;29.20;;;13.48;;
65459;SDS011;52058;49.822;6.754;2024-01-11T06:51:53;31.77;;;14.27;;
65459;SDS011;52058;49.822;6.754;2024-01-11T06:54:19;27.90;;;14.25;;
65459;SDS011;52058;49.822;6.754;2024-01-11T06:56:47;31.35;;;14.20;;
65459;SDS011;52058;49.822;6.754;2024-01-11T06:59:14;33.33;;;15.63;;
65459;SDS011;52058;49.822;6.754;2024-01-11T07:01:40;29.42;;;15.00;;
65459;SDS011;52058;49.822;6.754;2024-01-11T07:04:06;27.48;;;14.27;;
65459;SDS011;52058;49.822;6.754;2024-01-11T07:06:33;31.98;;;14.57;;
65459;SDS011;52058;49.822;6.754;2024-01-11T07:08:59;29.23;;;13.15;;
65459;SDS011;52058;49.822;6.754;2024-01-11T07:11:25;30.13;;;12.68;;
65459;SDS011;52058;49.822;6.754;2024-01-11T07:13:53;30.13;;;13.20;;
65459;SDS011;52058;49.822;6.754;2024-01-11T07:16:20;36.85;;;13.82;;
65459;SDS011;52058;49.822;6.754;2024-01-11T07:18:47;27.92;;;12.43;;
65459;SDS011;52058;49.822;6.754;2024-01-11T07:21:13;25.75;;;12.23;;
65459;SDS011;52058;49.822;6.754;2024-01-11T07:23:45;27.85;;;14.20;;
65459;SDS011;52058;49.822;6.754;2024-01-11T07:26:12;34.58;;;13.93;;
65459;SDS011;52058;49.822;6.754;2024-01-11T07:28:38;30.15;;;13.50;;
65459;SDS011;52058;49.822;6.754;2024-01-11T07:31:06;30.98;;;13.45;;
65459;SDS011;52058;49.822;6.754;2024-01-11T07:33:32;30.90;;;13.82;;
65459;SDS011;52058;49.822;6.754;2024-01-11T07:35:59;29.30;;;13.45;;
65459;SDS011;52058;49.822;6.754;2024-01-11T07:38:25;35.95;;;15.18;;
65459;SDS011;52058;49.822;6.754;2024-01-11T07:40:52;28.23;;;13.55;;
65459;SDS011;52058;49.822;6.754;2024-01-11T07:43:18;25.70;;;12.13;;
65459;SDS011;52058;49.822;6.754;2024-01-11T07:45:44;30.05;;;13.30;;
65459;SDS011;52058;49.822;6.754;2024-01-11T07:48:12;29.02;;;13.50;;
65459;SDS011;52058;49.822;6.754;2024-01-11T07:50:39;30.50;;;12.68;;
65459;SDS011;52058;49.822;6.754;2024-01-11T07:53:05;27.30;;;11.88;;
65459;SDS011;52058;49.822;6.754;2024-01-11T07:55:31;29.02;;;12.98;;
65459;SDS011;52058;49.822;6.754;2024-01-11T07:57:58;26.75;;;12.85;;
65459;SDS011;52058;49.822;6.754;2024-01-11T08:00:24;31.35;;;14.27;;
65459;SDS011;52058;49.822;6.754;2024-01-11T08:02:51;30.55;;;13.77;;
65459;SDS011;52058;49.822;6.754;2024-01-11T08:05:20;32.70;;;13.88;;
65459;SDS011;52058;49.822;6.754;2024-01-11T08:07:47;25.25;;;11.93;;
65459;SDS011;52058;49.822;6.754;2024-01-11T08:10:13;23.17;;;12.10;;
65459;SDS011;52058;49.822;6.754;2024-01-11T08:12:40;29.17;;;11.38;;
65459;SDS011;52058;49.822;6.754;2024-01-11T08:15:06;36.67;;;14.45;;
65459;SDS011;52058;49.822;6.754;2024-01-11T08:17:36;26.98;;;13.05;;
65459;SDS011;52058;49.822;6.754;2024-01-11T08:20:03;31.95;;;14.18;;
65459;SDS011;52058;49.822;6.754;2024-01-11T08:22:34;24.88;;;12.60;;
65459;SDS011;52058;49.822;6.754;2024-01-11T08:25:01;31.98;;;13.30;;
65459;SDS011;52058;49.822;6.754;2024-01-11T08:27:29;28.13;;;13.38;;
65459;SDS011;52058;49.822;6.754;2024-01-11T08:29:56;28.95;;;12.63;;
65459;SDS011;52058;49.822;6.754;2024-01-11T08:32:22;33.95;;;13.60;;
65459;SDS011;52058;49.822;6.754;2024-01-11T08:34:49;26.90;;;15.15;;
65459;SDS011;52058;49.822;6.754;2024-01-11T08:37:15;27.88;;;12.55;;
65459;SDS011;52058;49.822;6.754;2024-01-11T08:39:43;35.45;;;13.82;;
65459;SDS011;52058;49.822;6.754;2024-01-11T08:42:11;25.92;;;12.13;;
65459;SDS011;52058;49.822;6.754;2024-01-11T08:44:40;26.60;;;12.93;;
65459;SDS011;52058;49.822;6.754;2024-01-11T08:47:07;27.83;;;13.82;;
65459;SDS011;52058;49.822;6.754;2024-01-11T08:49:35;33.00;;;14.38;;
65459;SDS011;52058;49.822;6.754;2024-01-11T08:52:04;30.88;;;14.00;;
65459;SDS011;52058;49.822;6.754;2024-01-11T08:54:31;32.30;;;12.82;;
65459;SDS011;52058;49.822;6.754;2024-01-11T08:56:59;28.60;;;14.63;;
65459;SDS011;52058;49.822;6.754;2024-01-11T08:59:26;28.33;;;13.95;;
65459;SDS011;52058;49.822;6.754;2024-01-11T09:01:52;28.45;;;13.35;;
65459;SDS011;52058;49.822;6.754;2024-01-11T09:04:19;27.65;;;12.10;;
65459;SDS011;52058;49.822;6.754;2024-01-11T09:06:45;31.25;;;13.70;;
65459;SDS011;52058;49.822;6.754;2024-01-11T09:09:11;32.40;;;14.00;;
65459;SDS011;52058;49.822;6.754;2024-01-11T09:11:38;35.92;;;14.07;;
65459;SDS011;52058;49.822;6.754;2024-01-11T09:14:06;32.33;;;14.15;;
65459;SDS011;52058;49.822;6.754;2024-01-11T09:16:36;28.52;;;12.93;;
65459;SDS011;52058;49.822;6.754;2024-01-11T09:19:02;25.48;;;12.00;;
65459;SDS011;52058;49.822;6.754;2024-01-11T09:21:29;27.73;;;12.32;;
65459;SDS011;52058;49.822;6.754;2024-01-11T09:23:55;28.05;;;13.80;;
65459;SDS011;52058;49.822;6.754;2024-01-11T09:26:22;25.25;;;12.00;;
65459;SDS011;52058;49.822;6.754;2024-01-11T09:28:48;35.25;;;14.32;;
65459;SDS011;52058;49.822;6.754;2024-01-11T09:31:16;30.55;;;13.57;;
65459;SDS011;52058;49.822;6.754;2024-01-11T09:33:42;26.98;;;13.77;;
65459;SDS011;52058;49.822;6.754;2024-01-11T09:36:10;30.77;;;13.80;;
65459;SDS011;52058;49.822;6.754;2024-01-11T09:38:37;32.03;;;14.10;;
65459;SDS011;52058;49.822;6.754;2024-01-11T09:41:05;28.20;;;13.32;;
65459;SDS011;52058;49.822;6.754;2024-01-11T09:43:33;28.15;;;13.55;;
65459;SDS011;52058;49.822;6.754;2024-01-11T09:46:00;28.30;;;12.65;;
65459;SDS011;52058;49.822;6.754;2024-01-11T09:48:28;28.25;;;13.55;;
65459;SDS011;52058;49.822;6.754;2024-01-11T09:50:55;36.13;;;14.73;;
65459;SDS011;52058;49.822;6.754;2024-01-11T09:53:22;30.52;;;13.23;;
65459;SDS011;52058;49.822;6.754;2024-01-11T09:55:49;27.77;;;13.10;;
65459;SDS011;52058;49.822;6.754;2024-01-11T09:58:16;25.38;;;12.38;;
65459;SDS011;52058;49.822;6.754;2024-01-11T10:00:42;29.83;;;13.70;;
65459;SDS011;52058;49.822;6.754;2024-01-11T10:03:09;30.67;;;12.32;;
65459;SDS011;52058;49.822;6.754;2024-01-11T10:05:37;28.58;;;13.13;;
65459;SDS011;52058;49.822;6.754;2024-01-11T10:08:04;29.67;;;13.23;;
65459;SDS011;52058;49.822;6.754;2024-01-11T10:10:30;25.20;;;13.10;;
65459;SDS011;52058;49.822;6.754;2024-01-11T10:12:57;25.90;;;11.57;;
65459;SDS011;52058;49.822;6.754;2024-01-11T10:15:24;32.40;;;13.60;;
65459;SDS011;52058;49.822;6.754;2024-01-11T10:17:50;31.08;;;13.77;;
65459;SDS011;52058;49.822;6.754;2024-01-11T10:20:17;31.38;;;12.60;;
65459;SDS011;52058;49.822;6.754;2024-01-11T10:22:50;28.23;;;12.85;;
65459;SDS011;52058;49.822;6.754;2024-01-11T10:25:17;26.98;;;11.98;;
65459;SDS011;52058;49.822;6.754;2024-01-11T10:27:44;29.40;;;13.20;;
65459;SDS011;52058;49.822;6.754;2024-01-11T10:30:11;28.27;;;13.25;;
65459;SDS011;52058;49.822;6.754;2024-01-11T10:32:38;24.65;;;11.45;;
65459;SDS011;52058;49.822;6.754;2024-01-11T10:35:04;24.25;;;11.48;;
65459;SDS011;52058;49.822;6.754;2024-01-11T10:37:31;25.60;;;11.77;;
65459;SDS011;52058;49.822;6.754;2024-01-11T10:40:01;27.77;;;12.82;;
65459;SDS011;52058;49.822;6.754;2024-01-11T10:42:29;28.50;;;13.23;;
65459;SDS011;52058;49.822;6.754;2024-01-11T10:44:57;28.33;;;12.38;;
65459;SDS011;52058;49.822;6.754;2024-01-11T10:47:25;24.00;;;11.25;;
65459;SDS011;52058;49.822;6.754;2024-01-11T10:49:53;23.23;;;11.23;;
65459;SDS011;52058;49.822;6.754;2024-01-11T10:52:25;23.25;;;11.98;;
65459;SDS011;52058;49.822;6.754;2024-01-11T10:54:53;26.48;;;10.55;;
65459;SDS011;52058;49.822;6.754;2024-01-11T10:57:21;27.25;;;11.85;;
65459;SDS011;52058;49.822;6.754;2024-01-11T10:59:48;25.75;;;12.98;;
65459;SDS011;52058;49.822;6.754;2024-01-11T11:02:15;28.10;;;12.20;;
65459;SDS011;52058;49.822;6.754;2024-01-11T11:04:42;26.23;;;11.73;;
65459;SDS011;52058;49.822;6.754;2024-01-11T11:07:09;25.83;;;11.32;;
65459;SDS011;52058;49.822;6.754;2024-01-11T11:09:37;25.00;;;11.05;;
65459;SDS011;52058;49.822;6.754;2024-01-11T11:12:08;25.33;;;11.30;;
65459;SDS011;52058;49.822;6.754;2024-01-11T11:14:36;27.67;;;12.10;;
65459;SDS011;52058;49.822;6.754;2024-01-11T11:17:04;23.55;;;10.98;;
65459;SDS011;52058;49.822;6.754;2024-01-11T11:19:31;25.50;;;11.13;;
65459;SDS011;52058;49.822;6.754;2024-01-11T11:21:58;23.85;;;9.93;;
65459;SDS011;52058;49.822;6.754;2024-01-11T11:24:24;22.83;;;10.63;;
65459;SDS011;52058;49.822;6.754;2024-01-11T11:26:51;22.35;;;10.73;;
65459;SDS011;52058;49.822;6.754;2024-01-11T11:29:18;23.85;;;10.55;;
65459;SDS011;52058;49.822;6.754;2024-01-11T11:31:47;21.00;;;10.40;;
65459;SDS011;52058;49.822;6.754;2024-01-11T11:34:18;20.75;;;10.05;;
65459;SDS011;52058;49.822;6.754;2024-01-11T11:36:45;24.38;;;9.95;;
65459;SDS011;52058;49.822;6.754;2024-01-11T11:39:13;21.73;;;10.15;;
65459;SDS011;52058;49.822;6.754;2024-01-11T11:41:39;24.75;;;10.68;;
65459;SDS011;52058;49.822;6.754;2024-01-11T11:44:07;18.77;;;9.45;;
65459;SDS011;52058;49.822;6.754;2024-01-11T11:46:33;24.25;;;10.52;;
65459;SDS011;52058;49.822;6.754;2024-01-11T11:49:01;21.52;;;9.38;;
65459;SDS011;52058;49.822;6.754;2024-01-11T11:51:28;24.77;;;10.00;;
65459;SDS011;52058;49.822;6.754;2024-01-11T11:53:54;22.88;;;10.65;;
65459;SDS011;52058;49.822;6.754;2024-01-11T11:56:21;20.63;;;10.00;;
65459;SDS011;52058;49.822;6.754;2024-01-11T11:58:48;24.10;;;9.80;;
65459;SDS011;52058;49.822;6.754;2024-01-11T12:01:17;25.60;;;10.07;;
65459;SDS011;52058;49.822;6.754;2024-01-11T12:03:43;22.60;;;10.13;;
65459;SDS011;52058;49.822;6.754;2024-01-11T12:06:16;23.30;;;9.32;;
65459;SDS011;52058;49.822;6.754;2024-01-11T12:08:42;21.08;;;9.65;;
65459;SDS011;52058;49.822;6.754;2024-01-11T12:11:09;22.63;;;9.25;;
65459;SDS011;52058;49.822;6.754;2024-01-11T12:13:38;20.40;;;9.40;;
65459;SDS011;52058;49.822;6.754;2024-01-11T12:16:05;18.88;;;9.13;;
65459;SDS011;52058;49.822;6.754;2024-01-11T12:18:32;17.45;;;9.20;;
65459;SDS011;52058;49.822;6.754;2024-01-11T12:20:58;22.80;;;9.05;;
65459;SDS011;52058;49.822;6.754;2024-01-11T12:23:26;23.58;;;9.82;;
65459;SDS011;52058;49.822;6.754;2024-01-11T12:25:55;19.23;;;8.38;;
65459;SDS011;52058;49.822;6.754;2024-01-11T12:28:21;18.08;;;8.63;;
65459;SDS011;52058;49.822;6.754;2024-01-11T12:30:48;19.40;;;8.85;;
65459;SDS011;52058;49.822;6.754;2024-01-11T12:33:14;19.92;;;8.30;;
65459;SDS011;52058;49.822;6.754;2024-01-11T12:35:41;19.80;;;8.98;;
65459;SDS011;52058;49.822;6.754;2024-01-11T12:38:08;17.35;;;8.65;;
65459;SDS011;52058;49.822;6.754;2024-01-11T12:40:36;17.25;;;8.52;;
65459;SDS011;52058;49.822;6.754;2024-01-11T12:43:03;17.80;;;8.80;;
65459;SDS011;52058;49.822;6.754;2024-01-11T12:45:29;18.33;;;8.75;;
65459;SDS011;52058;49.822;6.754;2024-01-11T12:47:57;17.13;;;8.52;;
65459;SDS011;52058;49.822;6.754;2024-01-11T12:50:24;15.13;;;7.78;;
65459;SDS011;52058;49.822;6.754;2024-01-11T12:53:04;20.92;;;7.97;;
65459;SDS011;52058;49.822;6.754;2024-01-11T12:55:30;16.58;;;8.30;;
65459;SDS011;52058;49.822;6.754;2024-01-11T12:58:04;14.57;;;7.38;;
65459;SDS011;52058;49.822;6.754;2024-01-11T13:00:30;17.48;;;7.45;;
65459;SDS011;52058;49.822;6.754;2024-01-11T13:02:57;19.25;;;8.18;;
65459;SDS011;52058;49.822;6.754;2024-01-11T13:05:24;18.77;;;8.07;;
65459;SDS011;52058;49.822;6.754;2024-01-11T13:07:51;17.38;;;8.18;;
65459;SDS011;52058;49.822;6.754;2024-01-11T13:10:17;18.17;;;8.30;;
65459;SDS011;52058;49.822;6.754;2024-01-11T13:12:44;13.80;;;7.35;;
65459;SDS011;52058;49.822;6.754;2024-01-11T13:15:12;18.92;;;8.07;;
65459;SDS011;52058;49.822;6.754;2024-01-11T13:17:39;15.65;;;7.70;;
65459;SDS011;52058;49.822;6.754;2024-01-11T13:20:05;15.88;;;7.20;;
65459;SDS011;52058;49.822;6.754;2024-01-11T13:22:32;15.15;;;7.88;;
65459;SDS011;52058;49.822;6.754;2024-01-11T13:24:58;21.25;;;8.80;;
65459;SDS011;52058;49.822;6.754;2024-01-11T13:27:25;17.88;;;8.20;;
65459;SDS011;52058;49.822;6.754;2024-01-11T13:29:51;19.65;;;8.13;;
65459;SDS011;52058;49.822;6.754;2024-01-11T13:32:19;17.27;;;7.45;;
65459;SDS011;52058;49.822;6.754;2024-01-11T13:34:47;17.20;;;7.45;;
65459;SDS011;52058;49.822;6.754;2024-01-11T13:37:13;15.98;;;7.68;;
65459;SDS011;52058;49.822;6.754;2024-01-11T13:39:40;17.33;;;7.88;;
65459;SDS011;52058;49.822;6.754;2024-01-11T13:42:07;27.40;;;10.30;;
65459;SDS011;52058;49.822;6.754;2024-01-11T13:44:34;15.80;;;8.65;;
65459;SDS011;52058;49.822;6.754;2024-01-11T13:47:01;20.88;;;9.48;;
65459;SDS011;52058;49.822;6.754;2024-01-11T13:49:29;17.45;;;9.05;;
65459;SDS011;52058;49.822;6.754;2024-01-11T13:51:56;20.90;;;8.50;;
65459;SDS011;52058;49.822;6.754;2024-01-11T13:54:23;18.88;;;8.57;;
65459;SDS011;52058;49.822;6.754;2024-01-11T13:56:49;16.90;;;7.78;;
65459;SDS011;52058;49.822;6.754;2024-01-11T13:59:16;18.33;;;7.65;;
65459;SDS011;52058;49.822;6.754;2024-01-11T14:01:43;16.25;;;7.65;;
65459;SDS011;52058;49.822;6.754;2024-01-11T14:04:09;15.98;;;8.63;;
65459;SDS011;52058;49.822;6.754;2024-01-11T14:06:37;16.58;;;8.35;;
65459;SDS011;52058;49.822;6.754;2024-01-11T14:09:03;17.48;;;8.52;;
65459;SDS011;52058;49.822;6.754;2024-01-11T14:11:34;14.10;;;7.50;;
65459;SDS011;52058;49.822;6.754;2024-01-11T14:14:01;14.70;;;8.00;;
65459;SDS011;52058;49.822;6.754;2024-01-11T14:16:27;13.77;;;7.38;;
65459;SDS011;52058;49.822;6.754;2024-01-11T14:18:54;12.38;;;6.55;;
65459;SDS011;52058;49.822;6.754;2024-01-11T14:21:20;12.88;;;6.63;;
65459;SDS011;52058;49.822;6.754;2024-01-11T14:23:48;14.95;;;6.35;;
65459;SDS011;52058;49.822;6.754;2024-01-11T14:26:16;13.10;;;6.18;;